Time;durP1;ratioP1;P1;durP2;ratioP2;P2;SDS_P1;SDS_P2;PMS_P1;PMS_P2;Temp;Humidity;BMP_temperature;BMP_pressure;BME280_temperature;BME280_humidity;BME280_pressure;Samples;Min_cycle;Max_cycle;Signal;HPM_P1;HPM_P2
2023/10/19 00:01:11;;;;;;;7.82;5.57;;;7.20;99.90;;;;;;5037267;28;20442;-57
2023/10/19 00:03:37;;;;;;;8.00;5.35;;;7.20;99.90;;;;;;5038933;28;20029;-53
2023/10/19 00:06:03;;;;;;;5.97;5.38;;;7.10;99.90;;;;;;5038247;28;20405;-56
2023/10/19 00:08:40;;;;;;;6.45;5.22;;;7.20;99.90;;;;;;5041069;28;20036;-57
2023/10/19 00:11:22;;;;;;;7.70;5.82;;;7.10;99.90;;;;;;5029325;28;20159;-57
2023/10/19 00:13:50;;;;;;;6.35;5.50;;;7.20;99.90;;;;;;5024247;28;20014;-55
2023/10/19 00:16:17;;;;;;;6.32;5.63;;;7.10;99.90;;;;;;5025850;28;20036;-55
2023/10/19 00:18:43;;;;;;;7.50;6.30;;;7.10;99.90;;;;;;5026014;28;20017;-56
2023/10/19 00:21:23;;;;;;;10.50;6.63;;;7.20;99.90;;;;;;5024934;28;20393;-56
2023/10/19 00:24:05;;;;;;;11.98;6.15;;;7.20;99.90;;;;;;5024810;28;20056;-55
2023/10/19 00:26:31;;;;;;;6.97;5.57;;;7.10;99.90;;;;;;5024817;28;20444;-56
2023/10/19 00:28:57;;;;;;;8.02;5.30;;;7.20;99.90;;;;;;5024643;28;20770;-55
2023/10/19 00:31:23;;;;;;;8.68;6.20;;;7.20;99.90;;;;;;5023840;28;20068;-54
2023/10/19 00:33:51;;;;;;;8.73;5.97;;;7.20;99.90;;;;;;5026004;28;20018;-57
2023/10/19 00:36:20;;;;;;;9.90;6.28;;;7.10;99.90;;;;;;5025043;28;20556;-54
2023/10/19 00:41:35;;;;;;;9.25;6.53;;;7.20;99.90;;;;;;5023770;28;20120;-56
2023/10/19 00:44:10;;;;;;;9.38;6.18;;;7.20;99.90;;;;;;5025071;28;20024;-54
2023/10/19 00:49:14;;;;;;;7.95;6.15;;;7.10;99.90;;;;;;5029765;28;20043;-55
2023/10/19 00:54:40;;;;;;;7.25;6.38;;;7.10;99.90;;;;;;5031817;28;20440;-62
2023/10/19 00:57:10;;;;;;;9.88;6.72;;;7.10;99.90;;;;;;5030217;28;20108;-55
2023/10/19 00:59:47;;;;;;;9.90;5.78;;;7.10;99.90;;;;;;5014572;28;20405;-55
2023/10/19 01:02:47;;;;;;;8.73;5.95;;;7.10;99.90;;;;;;5034378;28;20041;-56
2023/10/19 01:05:06;;;;;;;10.07;5.85;;;7.10;99.90;;;;;;5027211;28;20612;-56
2023/10/19 01:07:37;;;;;;;8.25;6.25;;;7.10;99.90;;;;;;5036400;28;20013;-56
2023/10/19 01:10:05;;;;;;;10.80;6.18;;;7.10;99.90;;;;;;5043615;28;20074;-58
2023/10/19 01:15:17;;;;;;;9.10;6.18;;;7.10;99.90;;;;;;5042876;28;20017;-55
2023/10/19 01:17:45;;;;;;;10.05;6.32;;;7.10;99.90;;;;;;5040815;28;20021;-56
2023/10/19 01:28:42;;;;;;;9.55;6.47;;;7.10;99.90;;;;;;5037992;28;20029;-53
2023/10/19 01:31:14;;;;;;;8.57;6.20;;;7.10;99.90;;;;;;5041406;28;20363;-56
2023/10/19 01:33:41;;;;;;;7.47;6.53;;;7.10;99.90;;;;;;5041075;28;20388;-56
2023/10/19 01:36:11;;;;;;;8.40;6.38;;;7.10;99.90;;;;;;5026059;28;20056;-53
2023/10/19 01:38:37;;;;;;;10.30;6.30;;;7.10;99.90;;;;;;5040661;28;20071;-55
2023/10/19 01:41:13;;;;;;;7.25;6.22;;;7.10;99.90;;;;;;5044027;28;20124;-55
2023/10/19 01:43:43;;;;;;;7.07;5.93;;;7.10;99.90;;;;;;5045747;28;20051;-56
2023/10/19 01:46:12;;;;;;;9.05;7.00;;;7.10;99.90;;;;;;5024706;28;20378;-53
2023/10/19 01:48:42;;;;;;;12.00;6.22;;;7.10;99.90;;;;;;5038427;28;20477;-55
2023/10/19 01:51:15;;;;;;;8.95;6.78;;;7.10;99.90;;;;;;5041819;28;20140;-51
2023/10/19 01:53:44;;;;;;;11.88;6.60;;;7.10;99.90;;;;;;5040066;28;20020;-55
2023/10/19 01:56:14;;;;;;;10.02;7.25;;;7.10;99.90;;;;;;5043016;28;20032;-56
2023/10/19 01:58:41;;;;;;;9.73;6.72;;;7.10;99.90;;;;;;5036257;28;20447;-53
2023/10/19 02:03:42;;;;;;;10.02;7.03;;;7.20;99.90;;;;;;5039561;28;20029;-56
2023/10/19 02:06:27;;;;;;;11.80;7.18;;;7.20;99.90;;;;;;5046674;28;20028;-52
2023/10/19 02:08:59;;;;;;;10.48;7.45;;;7.20;99.90;;;;;;5043681;28;20031;-52
2023/10/19 02:11:26;;;;;;;10.40;7.05;;;7.20;99.90;;;;;;5028911;28;20035;-57
2023/10/19 02:13:54;;;;;;;8.35;6.03;;;7.20;99.90;;;;;;5044226;28;20017;-52
2023/10/19 02:16:24;;;;;;;9.38;6.35;;;7.30;99.90;;;;;;5045101;28;20091;-55
2023/10/19 02:18:51;;;;;;;8.65;6.53;;;7.30;99.90;;;;;;5046408;28;20501;-56
2023/10/19 02:21:23;;;;;;;10.85;7.63;;;7.30;99.90;;;;;;5046369;28;20021;-57
2023/10/19 02:23:50;;;;;;;12.02;7.25;;;7.30;99.90;;;;;;5026796;28;20680;-55
2023/10/19 02:26:19;;;;;;;13.73;7.30;;;7.20;99.90;;;;;;5044383;28;20023;-55
2023/10/19 02:28:50;;;;;;;9.52;6.95;;;7.30;99.90;;;;;;5044872;28;20028;-54
2023/10/19 02:31:19;;;;;;;13.95;7.75;;;7.30;99.90;;;;;;5044022;28;20079;-52
2023/10/19 02:33:45;;;;;;;8.95;6.78;;;7.30;99.90;;;;;;5027827;28;20074;-52
2023/10/19 02:36:13;;;;;;;10.55;6.45;;;7.30;99.90;;;;;;5045989;28;20021;-53
2023/10/19 02:38:48;;;;;;;9.95;6.80;;;7.30;99.90;;;;;;5044275;28;20100;-55
2023/10/19 02:41:15;;;;;;;10.82;6.57;;;7.30;99.90;;;;;;5044573;28;20100;-54
2023/10/19 02:43:41;;;;;;;11.05;7.38;;;7.30;99.90;;;;;;5043540;28;20366;-53
2023/10/19 02:46:07;;;;;;;11.82;7.00;;;7.20;99.90;;;;;;5041628;28;20040;-55
2023/10/19 02:48:33;;;;;;;9.73;6.57;;;7.20;99.90;;;;;;5037197;28;20043;-54
2023/10/19 02:51:05;;;;;;;9.30;6.35;;;7.30;99.90;;;;;;5021597;28;20045;-51
2023/10/19 02:53:31;;;;;;;10.68;7.15;;;7.30;99.90;;;;;;5037291;28;20087;-54
2023/10/19 02:56:01;;;;;;;10.90;7.10;;;7.30;99.90;;;;;;5039538;28;20587;-57
2023/10/19 02:58:28;;;;;;;8.40;6.43;;;7.20;99.90;;;;;;5039138;28;20025;-55
2023/10/19 03:00:54;;;;;;;10.90;7.53;;;7.30;99.90;;;;;;5035999;28;20057;-56
2023/10/19 03:03:20;;;;;;;12.07;7.75;;;7.30;99.90;;;;;;5041574;28;20032;-56
2023/10/19 03:05:46;;;;;;;8.63;6.68;;;7.30;99.90;;;;;;5041799;28;20025;-56
2023/10/19 03:08:15;;;;;;;12.65;7.70;;;7.30;99.90;;;;;;5028246;28;20166;-55
2023/10/19 03:10:43;;;;;;;10.82;7.38;;;7.30;99.90;;;;;;5022613;28;20370;-56
2023/10/19 03:13:09;;;;;;;9.63;7.13;;;7.30;99.90;;;;;;5027033;28;20611;-56
2023/10/19 03:15:35;;;;;;;9.20;7.50;;;7.30;99.90;;;;;;5042589;28;20060;-56
2023/10/19 03:18:01;;;;;;;10.25;7.15;;;7.30;99.90;;;;;;5041932;28;20020;-53
2023/10/19 03:20:33;;;;;;;10.18;7.03;;;7.30;99.90;;;;;;5044444;28;20025;-56
2023/10/19 03:23:01;;;;;;;9.98;7.47;;;7.30;99.90;;;;;;5028165;28;20025;-56
2023/10/19 03:28:11;;;;;;;10.40;7.25;;;7.30;99.90;;;;;;5040355;28;20068;-56
2023/10/19 03:30:40;;;;;;;9.73;7.00;;;7.30;99.90;;;;;;5044017;28;20519;-56
2023/10/19 03:33:08;;;;;;;10.82;7.00;;;7.30;99.90;;;;;;5043303;28;20029;-56
2023/10/19 03:35:41;;;;;;;9.88;7.15;;;7.40;99.90;;;;;;5044758;28;20491;-56
2023/10/19 03:38:14;;;;;;;8.57;6.30;;;7.40;99.90;;;;;;5044506;28;20025;-57
2023/10/19 03:40:40;;;;;;;10.60;7.43;;;7.40;99.90;;;;;;5042671;28;20615;-51
2023/10/19 03:43:16;;;;;;;13.40;6.95;;;7.40;99.90;;;;;;5045505;28;20086;-55
2023/10/19 03:45:48;;;;;;;10.48;8.43;;;7.40;99.90;;;;;;5043025;28;20394;-56
2023/10/19 03:48:16;;;;;;;8.57;6.85;;;7.40;99.90;;;;;;5018292;28;20697;-56
2023/10/19 03:50:42;;;;;;;7.72;6.65;;;7.40;99.90;;;;;;5040201;28;20088;-57
2023/10/19 03:53:12;;;;;;;11.73;7.13;;;7.40;99.90;;;;;;5038713;28;20125;-52
2023/10/19 03:55:38;;;;;;;10.10;6.68;;;7.50;99.90;;;;;;5038855;28;20014;-55
2023/10/19 03:58:04;;;;;;;9.02;6.68;;;7.40;99.90;;;;;;5040683;28;20028;-57
2023/10/19 04:00:33;;;;;;;10.52;6.85;;;7.50;99.90;;;;;;5036161;28;20032;-54
2023/10/19 04:02:59;;;;;;;9.00;6.10;;;7.50;99.90;;;;;;5018890;28;20396;-56
2023/10/19 04:05:26;;;;;;;10.68;7.72;;;7.50;99.90;;;;;;5021018;28;20485;-55
2023/10/19 04:07:55;;;;;;;11.93;6.75;;;7.50;99.90;;;;;;5027950;28;20017;-56
2023/10/19 04:10:38;;;;;;;9.68;6.65;;;7.50;99.90;;;;;;5040551;28;20500;-57
2023/10/19 04:13:09;;;;;;;9.38;6.63;;;7.50;99.90;;;;;;5044031;28;20017;-57
2023/10/19 04:15:35;;;;;;;13.73;7.28;;;7.50;99.90;;;;;;5040984;28;20017;-57
2023/10/19 04:18:02;;;;;;;10.52;6.78;;;7.40;99.90;;;;;;5023343;28;20111;-54
2023/10/19 04:23:14;;;;;;;11.18;7.32;;;7.40;99.90;;;;;;5045947;28;20035;-54
2023/10/19 04:25:39;;;;;;;9.20;7.20;;;7.40;99.90;;;;;;5044703;28;20025;-54
2023/10/19 04:28:05;;;;;;;10.18;7.07;;;7.30;99.90;;;;;;5039070;28;20032;-54
2023/10/19 04:30:33;;;;;;;11.77;7.97;;;7.30;99.90;;;;;;5035265;28;20022;-52
2023/10/19 04:32:59;;;;;;;12.10;8.20;;;7.30;99.90;;;;;;5037909;28;20408;-52
2023/10/19 04:35:29;;;;;;;10.73;7.55;;;7.20;99.90;;;;;;5040075;28;20017;-55
2023/10/19 04:37:56;;;;;;;10.38;7.50;;;7.10;99.90;;;;;;5038681;28;20057;-55
2023/10/19 04:40:23;;;;;;;9.07;7.18;;;7.10;99.90;;;;;;5037588;28;20067;-54
2023/10/19 04:42:51;;;;;;;9.68;7.13;;;7.10;99.90;;;;;;5037068;28;20800;-56
2023/10/19 04:45:16;;;;;;;9.35;7.05;;;7.00;99.90;;;;;;5039704;28;20026;-54
2023/10/19 04:47:42;;;;;;;10.98;8.10;;;7.00;99.90;;;;;;5031799;28;20025;-56
2023/10/19 04:50:10;;;;;;;11.43;7.90;;;7.00;99.90;;;;;;5034485;28;20029;-53
2023/10/19 04:52:37;;;;;;;10.50;7.05;;;6.90;99.90;;;;;;5031694;28;20067;-55
2023/10/19 04:55:03;;;;;;;12.55;8.65;;;6.90;99.90;;;;;;5038331;28;20021;-54
2023/10/19 04:57:28;;;;;;;11.55;8.15;;;6.90;99.90;;;;;;5018869;28;20032;-54
2023/10/19 04:59:55;;;;;;;13.07;8.00;;;6.80;99.90;;;;;;5041023;28;20159;-54
2023/10/19 05:02:20;;;;;;;13.02;8.02;;;6.90;99.90;;;;;;5035032;28;20021;-57
2023/10/19 05:04:46;;;;;;;13.02;8.23;;;6.80;99.90;;;;;;5020593;28;20032;-54
2023/10/19 05:07:14;;;;;;;12.15;8.35;;;6.80;99.90;;;;;;5034817;28;20096;-56
2023/10/19 05:09:40;;;;;;;11.43;7.80;;;6.80;99.90;;;;;;5037575;28;20385;-56
2023/10/19 05:12:09;;;;;;;13.25;8.50;;;6.80;99.90;;;;;;5039609;28;20013;-56
2023/10/19 05:14:41;;;;;;;12.95;8.60;;;6.70;99.90;;;;;;5035650;28;20871;-54
2023/10/19 05:17:09;;;;;;;11.65;8.55;;;6.70;99.90;;;;;;5035008;28;20033;-55
2023/10/19 05:19:35;;;;;;;10.77;8.13;;;6.70;99.90;;;;;;5037025;28;20017;-57
2023/10/19 05:22:01;;;;;;;16.27;9.40;;;6.70;99.90;;;;;;5037592;28;20097;-56
2023/10/19 05:24:28;;;;;;;12.80;8.43;;;6.70;99.90;;;;;;5039092;28;20066;-54
2023/10/19 05:26:54;;;;;;;12.25;8.43;;;6.70;99.90;;;;;;5035992;28;20448;-53
2023/10/19 05:29:20;;;;;;;12.60;8.82;;;6.60;99.90;;;;;;5022644;28;20025;-55
2023/10/19 05:31:46;;;;;;;14.50;9.02;;;6.60;99.90;;;;;;5036657;28;20021;-56
2023/10/19 05:34:12;;;;;;;12.80;8.82;;;6.60;99.90;;;;;;5042293;28;20645;-56
2023/10/19 05:36:39;;;;;;;11.50;8.95;;;6.60;99.90;;;;;;5037448;28;20029;-57
2023/10/19 05:39:07;;;;;;;11.55;8.00;;;6.60;99.90;;;;;;5038899;28;20103;-56
2023/10/19 05:41:33;;;;;;;12.57;8.38;;;6.60;99.90;;;;;;5038162;28;20094;-57
2023/10/19 05:43:59;;;;;;;14.27;9.30;;;6.60;99.90;;;;;;5023269;28;20048;-56
2023/10/19 05:46:25;;;;;;;12.82;8.38;;;6.60;99.90;;;;;;5036825;28;20134;-55
2023/10/19 05:48:53;;;;;;;13.52;9.85;;;6.50;99.90;;;;;;5037429;28;20037;-57
2023/10/19 05:51:19;;;;;;;11.20;8.63;;;6.50;99.90;;;;;;5035171;28;20489;-56
2023/10/19 05:53:44;;;;;;;14.02;9.05;;;6.60;99.90;;;;;;5029895;28;20031;-52
2023/10/19 05:56:11;;;;;;;13.73;8.77;;;6.50;99.90;;;;;;5040977;28;20037;-57
2023/10/19 05:58:36;;;;;;;12.25;8.73;;;6.50;99.90;;;;;;5036576;28;20108;-59
2023/10/19 06:01:02;;;;;;;10.48;8.63;;;6.50;99.90;;;;;;5034625;28;20112;-59
2023/10/19 06:03:28;;;;;;;13.18;9.30;;;6.50;99.90;;;;;;5033167;28;20029;-57
2023/10/19 06:05:56;;;;;;;15.13;9.15;;;6.50;99.90;;;;;;5038673;28;20087;-58
2023/10/19 06:08:22;;;;;;;13.63;9.40;;;6.50;99.90;;;;;;5038547;28;20025;-56
2023/10/19 06:10:52;;;;;;;13.73;10.02;;;6.50;99.90;;;;;;5039646;28;20026;-57
2023/10/19 06:13:18;;;;;;;14.30;10.02;;;6.50;99.90;;;;;;5035283;28;20541;-58
2023/10/19 06:15:43;;;;;;;13.18;9.30;;;6.50;99.90;;;;;;5040468;28;20109;-54
2023/10/19 06:18:10;;;;;;;13.90;9.88;;;6.50;99.90;;;;;;5037774;28;20032;-57
2023/10/19 06:20:36;;;;;;;14.32;10.52;;;6.50;99.90;;;;;;5036785;28;20059;-58
2023/10/19 06:23:05;;;;;;;14.05;8.98;;;6.50;99.90;;;;;;5030870;28;20021;-58
2023/10/19 06:25:34;;;;;;;14.13;9.43;;;6.50;99.90;;;;;;5035932;28;20033;-58
2023/10/19 06:28:01;;;;;;;16.17;10.15;;;6.50;99.90;;;;;;5044251;28;20029;-58
2023/10/19 06:30:27;;;;;;;13.77;9.32;;;6.50;99.90;;;;;;5042228;28;20025;-57
2023/10/19 06:33:00;;;;;;;13.63;9.38;;;6.50;99.90;;;;;;5040160;28;20060;-58
2023/10/19 06:35:28;;;;;;;12.65;9.52;;;6.50;99.90;;;;;;5041738;28;20079;-58
2023/10/19 06:37:57;;;;;;;13.32;9.77;;;6.50;99.90;;;;;;5042904;28;20022;-57
2023/10/19 06:40:23;;;;;;;14.07;9.82;;;6.50;99.90;;;;;;5043508;28;20036;-57
2023/10/19 06:42:49;;;;;;;13.95;9.50;;;6.50;99.90;;;;;;5040583;28;20055;-58
2023/10/19 06:45:18;;;;;;;16.77;9.55;;;6.50;99.90;;;;;;5043991;28;20060;-57
2023/10/19 06:47:46;;;;;;;13.50;8.85;;;6.50;99.90;;;;;;5035871;28;20027;-59
2023/10/19 06:50:15;;;;;;;15.10;9.73;;;6.50;99.90;;;;;;5038356;28;20045;-59
2023/10/19 06:52:42;;;;;;;14.43;9.23;;;6.50;99.90;;;;;;5036342;28;20009;-59
2023/10/19 06:55:19;;;;;;;12.05;9.23;;;6.50;99.90;;;;;;5041435;28;20428;-58
2023/10/19 06:57:48;;;;;;;14.23;9.05;;;6.50;99.90;;;;;;5040432;28;20116;-58
2023/10/19 07:00:22;;;;;;;14.20;8.77;;;6.50;99.90;;;;;;5039885;28;20033;-59
2023/10/19 07:02:51;;;;;;;11.65;8.65;;;6.50;99.90;;;;;;5053204;22;20148;-82
2023/10/19 07:05:29;;;;;;;13.35;9.55;;;6.50;99.90;;;;;;5020022;28;20482;-84
2023/10/19 07:07:56;;;;;;;12.90;9.25;;;6.50;99.90;;;;;;5018270;28;20018;-84
2023/10/19 07:10:22;;;;;;;11.77;9.63;;;6.60;99.90;;;;;;5013402;28;20049;-83
2023/10/19 07:12:51;;;;;;;14.10;9.25;;;6.50;99.90;;;;;;5007832;28;20022;-83
2023/10/19 07:15:21;;;;;;;13.65;9.68;;;6.50;99.90;;;;;;5014839;28;20065;-84
2023/10/19 07:17:48;;;;;;;14.75;9.43;;;6.60;99.90;;;;;;5007440;28;20029;-85
2023/10/19 07:23:18;;;;;;;14.45;10.10;;;6.50;99.90;;;;;;5018508;28;20032;-82
2023/10/19 07:25:45;;;;;;;12.75;9.65;;;6.50;99.90;;;;;;4997246;28;20042;-83
2023/10/19 07:28:12;;;;;;;14.57;9.77;;;6.50;99.90;;;;;;5006640;28;20026;-84
2023/10/19 07:30:38;;;;;;;12.18;9.52;;;6.50;99.90;;;;;;5003726;28;20116;-83
2023/10/19 07:33:05;;;;;;;14.85;9.82;;;6.50;99.90;;;;;;5002125;28;20095;-85
2023/10/19 07:35:34;;;;;;;13.05;9.93;;;6.50;99.90;;;;;;5005763;28;20084;-83
2023/10/19 07:38:01;;;;;;;11.90;9.40;;;6.50;99.90;;;;;;5005497;28;20023;-83
2023/10/19 07:40:27;;;;;;;14.85;10.00;;;6.50;99.90;;;;;;5024760;28;20026;-85
2023/10/19 07:42:54;;;;;;;20.98;10.85;;;6.50;99.90;;;;;;5003033;28;20026;-85
2023/10/19 07:45:19;;;;;;;13.10;9.32;;;6.50;99.90;;;;;;5006601;28;20398;-85
2023/10/19 07:47:46;;;;;;;15.48;9.23;;;6.50;99.90;;;;;;5000466;28;20026;-82
2023/10/19 07:50:15;;;;;;;11.95;9.38;;;6.50;99.90;;;;;;5018437;28;20018;-84
2023/10/19 07:52:43;;;;;;;13.02;10.05;;;6.50;99.90;;;;;;5017897;28;20023;-83
2023/10/19 07:55:09;;;;;;;12.63;9.68;;;6.50;99.90;;;;;;5016355;28;20017;-83
2023/10/19 07:57:35;;;;;;;13.27;10.40;;;6.50;99.90;;;;;;5000289;28;20030;-84
2023/10/19 08:00:01;;;;;;;13.48;9.85;;;6.50;99.90;;;;;;5002450;28;20032;-84
2023/10/19 08:02:27;;;;;;;12.18;8.52;;;6.60;99.90;;;;;;5001523;28;20448;-84
2023/10/19 08:04:53;;;;;;;13.45;9.90;;;6.60;99.90;;;;;;4999057;28;20704;-82
2023/10/19 08:07:19;;;;;;;15.07;10.32;;;6.60;99.90;;;;;;5020936;28;20085;-85
2023/10/19 08:09:44;;;;;;;14.48;9.40;;;6.60;99.90;;;;;;5001814;28;20109;-83
2023/10/19 08:12:13;;;;;;;14.13;10.10;;;6.60;99.90;;;;;;5001782;28;20022;-83
2023/10/19 08:14:39;;;;;;;14.25;10.38;;;6.60;99.90;;;;;;4995072;28;20389;-83
2023/10/19 08:17:05;;;;;;;15.23;10.60;;;6.60;99.90;;;;;;5004895;28;20108;-88
2023/10/19 08:19:31;;;;;;;12.85;9.43;;;6.60;99.90;;;;;;5003556;28;20029;-83
2023/10/19 08:21:57;;;;;;;15.80;9.77;;;6.60;99.90;;;;;;5015140;28;20142;-85
2023/10/19 08:24:23;;;;;;;17.27;10.93;;;6.60;99.90;;;;;;5005561;28;20052;-84
2023/10/19 08:26:50;;;;;;;15.35;10.35;;;6.60;99.90;;;;;;5016700;28;20029;-83
2023/10/19 08:29:16;;;;;;;15.15;10.23;;;6.60;99.90;;;;;;5002959;28;20025;-83
2023/10/19 08:31:44;;;;;;;15.00;10.27;;;6.60;99.90;;;;;;5022303;28;20100;-86
2023/10/19 08:34:11;;;;;;;14.23;10.48;;;6.60;99.90;;;;;;5021176;28;20117;-83
2023/10/19 08:36:37;;;;;;;16.25;10.27;;;6.60;99.90;;;;;;5022173;28;20097;-84
2023/10/19 08:39:07;;;;;;;19.35;11.15;;;6.70;99.90;;;;;;5018830;28;20488;-83
2023/10/19 08:41:35;;;;;;;15.23;10.80;;;6.70;99.90;;;;;;5003545;28;20378;-84
2023/10/19 08:44:10;;;;;;;15.68;10.40;;;6.70;99.90;;;;;;5009689;28;20065;-83
2023/10/19 08:46:39;;;;;;;15.83;11.33;;;6.60;99.90;;;;;;4999737;28;20033;-86
2023/10/19 08:49:09;;;;;;;17.83;10.45;;;6.70;99.90;;;;;;5020098;28;20029;-88
2023/10/19 08:51:35;;;;;;;19.48;11.50;;;6.60;99.90;;;;;;5015678;28;20038;-85
2023/10/19 08:54:02;;;;;;;13.30;10.45;;;6.60;99.90;;;;;;5018855;28;20092;-85
2023/10/19 08:56:28;;;;;;;15.65;10.00;;;6.70;99.90;;;;;;5020181;28;20026;-84
2023/10/19 08:58:53;;;;;;;19.00;10.57;;;6.70;99.90;;;;;;5000597;28;20017;-86
2023/10/19 09:01:19;;;;;;;13.85;10.60;;;6.60;99.90;;;;;;5004236;28;20083;-86
2023/10/19 09:03:46;;;;;;;18.20;11.10;;;6.60;99.90;;;;;;5000462;28;20042;-82
2023/10/19 09:06:12;;;;;;;12.25;10.20;;;6.60;99.90;;;;;;4996397;28;20358;-87
2023/10/19 09:08:40;;;;;;;16.58;10.98;;;6.60;99.90;;;;;;5015494;28;20030;-89
2023/10/19 09:11:11;;;;;;;17.08;11.30;;;6.60;99.90;;;;;;5013526;28;20096;-87
2023/10/19 09:13:51;;;;;;;16.75;10.60;;;6.60;99.90;;;;;;5008423;28;20116;-84
2023/10/19 09:16:22;;;;;;;18.70;11.27;;;6.60;99.90;;;;;;5001642;28;20033;-85
2023/10/19 09:18:48;;;;;;;14.63;10.48;;;6.60;99.90;;;;;;5018300;28;20054;-85
2023/10/19 09:21:24;;;;;;;14.88;10.43;;;6.60;99.90;;;;;;5012628;28;20022;-84
2023/10/19 09:23:55;;;;;;;15.93;11.50;;;6.60;99.90;;;;;;5002500;28;20036;-83
2023/10/19 09:26:22;;;;;;;16.83;10.85;;;6.60;99.90;;;;;;5014977;28;20546;-83
2023/10/19 09:28:53;;;;;;;15.65;11.55;;;6.60;99.90;;;;;;5000936;28;20025;-84
2023/10/19 09:31:21;;;;;;;16.70;11.38;;;6.60;99.90;;;;;;4997222;28;20038;-85
2023/10/19 09:33:48;;;;;;;15.38;11.68;;;6.60;99.90;;;;;;5001385;28;20140;-85
2023/10/19 09:36:15;;;;;;;13.20;10.00;;;6.60;99.90;;;;;;4992232;28;20026;-83
2023/10/19 09:38:51;;;;;;;18.65;11.15;;;6.60;99.90;;;;;;5015025;28;20064;-82
2023/10/19 09:41:21;;;;;;;15.98;10.45;;;6.60;99.90;;;;;;5014384;28;20019;-85
2023/10/19 09:43:50;;;;;;;17.35;11.13;;;6.60;99.90;;;;;;4998169;28;20128;-82
2023/10/19 09:46:29;;;;;;;14.25;9.80;;;6.60;99.90;;;;;;5000759;28;20025;-82
2023/10/19 09:48:55;;;;;;;15.63;10.75;;;6.60;99.90;;;;;;4999173;28;20037;-83
2023/10/19 09:51:22;;;;;;;16.55;10.80;;;6.60;99.90;;;;;;4997855;28;20026;-84
2023/10/19 09:54:04;;;;;;;15.38;11.02;;;6.60;99.90;;;;;;4988610;28;20021;-85
2023/10/19 09:56:41;;;;;;;13.65;10.93;;;6.60;99.90;;;;;;5007948;28;20458;-83
2023/10/19 09:59:19;;;;;;;16.05;9.73;;;6.60;99.90;;;;;;5009915;28;20026;-83
2023/10/19 10:02:05;;;;;;;18.65;11.00;;;6.60;99.90;;;;;;5008227;28;20094;-83
2023/10/19 10:04:31;;;;;;;15.40;9.75;;;6.60;99.90;;;;;;5002632;28;20493;-85
2023/10/19 10:06:59;;;;;;;15.05;10.38;;;6.60;99.90;;;;;;5012140;28;20038;-83
2023/10/19 10:09:26;;;;;;;14.90;11.23;;;6.60;99.90;;;;;;5002431;28;20120;-84
2023/10/19 10:11:55;;;;;;;14.43;10.32;;;6.60;99.90;;;;;;5001206;28;20047;-81
2023/10/19 10:14:24;;;;;;;16.30;10.77;;;6.60;99.90;;;;;;5018421;28;20061;-83
2023/10/19 10:17:02;;;;;;;14.18;10.68;;;6.70;99.90;;;;;;5018255;28;20045;-81
2023/10/19 10:19:28;;;;;;;13.35;9.75;;;6.70;99.90;;;;;;5006880;28;20049;-83
2023/10/19 10:22:11;;;;;;;14.73;11.15;;;6.70;99.90;;;;;;5016290;28;20025;-82
2023/10/19 10:24:43;;;;;;;13.82;10.60;;;6.80;99.90;;;;;;5016293;28;20576;-86
2023/10/19 10:27:10;;;;;;;15.02;10.60;;;6.80;99.90;;;;;;5005068;28;20054;-83
2023/10/19 10:29:36;;;;;;;17.35;10.25;;;6.80;99.90;;;;;;4999498;28;20022;-84
2023/10/19 10:32:02;;;;;;;19.17;11.50;;;6.80;99.90;;;;;;5017781;28;20060;-83
2023/10/19 10:34:33;;;;;;;15.85;10.20;;;6.90;99.90;;;;;;5018106;28;20048;-86
2023/10/19 10:37:08;;;;;;;15.77;10.52;;;6.80;99.90;;;;;;5016132;28;20483;-85
2023/10/19 10:39:40;;;;;;;16.63;11.57;;;6.80;99.90;;;;;;5017955;28;20018;-84
2023/10/19 10:42:10;;;;;;;14.27;9.70;;;6.90;99.90;;;;;;5007644;28;20264;-83
2023/10/19 10:44:44;;;;;;;15.35;10.27;;;6.90;99.90;;;;;;5021721;28;20021;-85
2023/10/19 10:47:12;;;;;;;13.32;9.75;;;6.90;99.90;;;;;;5000404;28;20022;-84
2023/10/19 10:49:53;;;;;;;15.35;11.30;;;6.90;99.90;;;;;;4994698;28;20036;-83
2023/10/19 10:52:30;;;;;;;13.75;9.98;;;6.90;99.90;;;;;;5017304;28;20045;-85
2023/10/19 10:54:57;;;;;;;13.75;9.75;;;6.90;99.90;;;;;;4994591;28;20113;-83
2023/10/19 10:57:23;;;;;;;12.32;9.85;;;6.90;99.90;;;;;;5001213;28;20421;-85
2023/10/19 11:00:03;;;;;;;11.30;9.35;;;6.90;99.90;;;;;;5013455;28;20028;-85
2023/10/19 11:02:29;;;;;;;13.85;9.45;;;6.90;99.90;;;;;;4996580;28;20715;-86
2023/10/19 11:04:55;;;;;;;13.80;9.98;;;6.90;99.90;;;;;;5001513;28;20477;-84
2023/10/19 11:07:21;;;;;;;14.93;10.85;;;6.90;99.90;;;;;;4997434;28;20022;-83
2023/10/19 11:09:47;;;;;;;12.70;8.82;;;6.90;99.90;;;;;;5005744;28;20014;-84
2023/10/19 11:12:13;;;;;;;12.02;9.43;;;6.90;99.90;;;;;;5018712;28;20028;-83
2023/10/19 11:14:57;;;;;;;13.32;9.82;;;6.90;99.90;;;;;;5022169;28;20420;-81
2023/10/19 11:17:30;;;;;;;13.57;9.85;;;6.90;99.90;;;;;;5020118;28;20021;-84
2023/10/19 11:19:56;;;;;;;14.38;9.50;;;6.90;99.90;;;;;;5004107;28;20110;-86
2023/10/19 11:22:26;;;;;;;12.50;9.55;;;6.90;99.90;;;;;;5021982;28;20045;-87
2023/10/19 11:24:56;;;;;;;12.85;9.88;;;6.90;99.90;;;;;;5003806;28;20482;-85
2023/10/19 11:27:28;;;;;;;12.15;8.85;;;6.90;99.90;;;;;;5014160;28;20501;-84
2023/10/19 11:29:58;;;;;;;13.15;9.32;;;6.90;99.90;;;;;;4997552;28;20022;-84
2023/10/19 11:32:25;;;;;;;11.63;8.88;;;6.90;99.90;;;;;;5023624;28;20018;-85
2023/10/19 11:34:55;;;;;;;15.85;10.65;;;6.90;99.90;;;;;;5019366;28;20018;-81
2023/10/19 11:37:20;;;;;;;15.23;10.52;;;6.90;99.90;;;;;;5016640;28;20034;-84
2023/10/19 11:39:46;;;;;;;13.43;9.70;;;6.90;99.90;;;;;;5021066;28;20034;-84
2023/10/19 11:42:12;;;;;;;14.35;9.48;;;6.90;99.90;;;;;;4997088;28;20029;-84
2023/10/19 11:44:38;;;;;;;13.15;9.70;;;6.90;99.90;;;;;;5017461;28;20050;-83
2023/10/19 11:47:03;;;;;;;13.57;10.25;;;6.90;99.90;;;;;;4991893;28;20029;-82
2023/10/19 11:49:29;;;;;;;12.43;10.13;;;7.00;99.90;;;;;;5015711;28;20029;-85
2023/10/19 11:51:54;;;;;;;11.35;9.40;;;7.00;99.90;;;;;;5000215;28;20478;-83
2023/10/19 11:54:20;;;;;;;14.30;9.57;;;7.00;99.90;;;;;;5017209;28;20018;-87
2023/10/19 11:56:46;;;;;;;12.38;9.50;;;7.00;99.90;;;;;;5029476;28;20045;-91
2023/10/19 11:59:12;;;;;;;14.82;9.85;;;7.00;99.90;;;;;;5010310;28;20085;-87
2023/10/19 12:01:38;;;;;;;13.60;10.88;;;7.00;99.90;;;;;;5000036;28;20026;-83
2023/10/19 12:04:05;;;;;;;15.57;10.48;;;7.00;99.90;;;;;;4994870;28;20819;-83
2023/10/19 12:06:31;;;;;;;14.95;9.48;;;7.00;99.90;;;;;;5019900;28;20116;-84
2023/10/19 12:09:02;;;;;;;15.50;10.73;;;6.90;99.90;;;;;;5001108;28;20060;-85
2023/10/19 12:11:28;;;;;;;13.75;9.60;;;7.00;99.90;;;;;;5020879;28;20116;-87
2023/10/19 12:13:54;;;;;;;15.05;10.52;;;7.00;99.90;;;;;;5018285;28;20140;-87
2023/10/19 12:16:21;;;;;;;14.35;10.10;;;7.00;99.90;;;;;;4999332;28;20533;-86
2023/10/19 12:18:48;;;;;;;16.77;10.25;;;7.00;99.90;;;;;;5003128;28;20013;-86
2023/10/19 12:21:14;;;;;;;15.98;11.13;;;7.00;99.90;;;;;;5000669;28;20037;-85
2023/10/19 12:23:43;;;;;;;13.40;9.30;;;7.00;99.90;;;;;;5002241;28;20021;-84
2023/10/19 12:26:12;;;;;;;14.90;10.32;;;7.00;99.90;;;;;;5001284;28;20103;-86
2023/10/19 12:28:38;;;;;;;14.00;9.48;;;7.00;99.90;;;;;;5001028;28;20129;-89
2023/10/19 12:31:10;;;;;;;11.93;9.70;;;7.00;99.90;;;;;;5014585;28;20092;-85
2023/10/19 12:33:38;;;;;;;15.23;9.88;;;7.00;99.90;;;;;;5005922;28;20367;-86
2023/10/19 12:36:24;;;;;;;14.02;9.70;;;7.10;99.90;;;;;;5005302;28;20030;-82
2023/10/19 12:38:50;;;;;;;17.00;10.10;;;7.10;99.90;;;;;;5004490;28;20121;-86
2023/10/19 12:41:17;;;;;;;12.15;9.90;;;7.10;99.90;;;;;;5023684;28;20050;-85
2023/10/19 12:43:43;;;;;;;17.05;11.13;;;7.10;99.90;;;;;;5020134;28;20017;-86
2023/10/19 12:46:09;;;;;;;15.35;10.52;;;7.10;99.90;;;;;;5003238;28;20028;-84
2023/10/19 12:48:35;;;;;;;15.38;11.07;;;7.20;99.90;;;;;;5004424;28;20021;-85
2023/10/19 12:51:01;;;;;;;14.43;10.60;;;7.20;99.90;;;;;;5001454;28;20554;-84
2023/10/19 12:53:27;;;;;;;16.95;10.65;;;7.20;99.90;;;;;;5018017;28;20103;-84
2023/10/19 12:55:53;;;;;;;16.17;10.20;;;7.20;99.90;;;;;;5001350;28;20093;-86
2023/10/19 12:58:21;;;;;;;14.07;11.18;;;7.20;99.90;;;;;;4998841;28;20029;-85
2023/10/19 13:00:48;;;;;;;12.52;10.20;;;7.20;99.90;;;;;;5016066;28;20018;-91
2023/10/19 13:03:16;;;;;;;15.80;10.13;;;7.20;99.90;;;;;;5012866;28;20033;-85
2023/10/19 13:05:44;;;;;;;16.30;10.95;;;7.20;99.90;;;;;;5000846;28;20021;-84
2023/10/19 13:08:14;;;;;;;14.60;10.68;;;7.20;99.90;;;;;;5019100;28;20097;-84
2023/10/19 13:10:42;;;;;;;17.58;10.13;;;7.20;99.90;;;;;;5005184;28;20030;-88
2023/10/19 13:13:12;;;;;;;14.60;10.90;;;7.20;99.90;;;;;;5021726;28;20018;-86
2023/10/19 13:15:44;;;;;;;15.93;11.73;;;7.20;99.90;;;;;;5000386;28;20030;-84
2023/10/19 13:18:11;;;;;;;15.93;11.27;;;7.30;99.90;;;;;;5002219;28;20105;-88
2023/10/19 13:20:38;;;;;;;14.35;10.13;;;7.30;99.90;;;;;;4997240;28;20013;-87
2023/10/19 13:23:12;;;;;;;12.75;10.07;;;7.20;99.90;;;;;;5011213;28;20398;-86